createdAt,value
2022-09-17T00:01:16.534Z,99.90
2022-09-17T00:03:45.275Z,99.90
2022-09-17T00:06:13.230Z,99.90
2022-09-17T00:08:41.597Z,99.90
2022-09-17T00:11:11.293Z,99.90
2022-09-17T00:13:38.134Z,99.90
2022-09-17T00:16:05.533Z,99.90
2022-09-17T00:18:32.318Z,99.90
2022-09-17T00:20:59.275Z,99.90
2022-09-17T00:23:26.010Z,99.90
2022-09-17T00:25:52.732Z,99.90
2022-09-17T00:28:19.450Z,99.90
2022-09-17T00:30:46.759Z,99.90
2022-09-17T00:33:18.216Z,99.90
2022-09-17T00:35:45.068Z,99.90
2022-09-17T00:38:11.919Z,99.90
2022-09-17T00:40:39.119Z,99.90
2022-09-17T00:43:11.872Z,99.90
2022-09-17T00:45:40.052Z,99.90
2022-09-17T00:48:07.338Z,99.90
2022-09-17T00:50:36.583Z,99.90
2022-09-17T00:53:13.611Z,99.90
2022-09-17T00:55:44.327Z,99.90
2022-09-17T00:58:12.947Z,99.90
2022-09-17T01:00:40.357Z,99.90
2022-09-17T01:03:07.571Z,99.90
2022-09-17T01:06:05.671Z,99.90
2022-09-17T01:08:53.536Z,99.90
2022-09-17T01:11:45.071Z,99.90
2022-09-17T01:14:21.124Z,99.90
2022-09-17T01:16:59.073Z,99.90
2022-09-17T01:20:05.314Z,99.90
2022-09-17T01:22:52.117Z,99.90
2022-09-17T01:25:45.420Z,99.90
2022-09-17T01:28:17.910Z,99.90
2022-09-17T01:31:02.833Z,99.90
2022-09-17T01:33:57.034Z,99.90
2022-09-17T01:36:59.383Z,99.90
2022-09-17T01:39:58.790Z,99.90
2022-09-17T01:42:38.668Z,99.90
2022-09-17T01:45:15.924Z,99.90
2022-09-17T01:47:54.744Z,99.90
2022-09-17T01:50:27.523Z,99.90
2022-09-17T01:52:56.676Z,99.90
2022-09-17T01:55:27.317Z,99.90
2022-09-17T01:58:04.333Z,99.90
2022-09-17T02:00:31.445Z,99.90
2022-09-17T02:03:09.874Z,99.90
2022-09-17T02:05:40.569Z,99.90
2022-09-17T02:08:13.682Z,99.90
2022-09-17T02:10:45.908Z,99.90
2022-09-17T02:13:26.994Z,99.90
2022-09-17T02:16:08.048Z,99.90
2022-09-17T02:18:43.386Z,99.90
2022-09-17T02:21:46.829Z,99.90
2022-09-17T02:24:25.600Z,99.90
2022-09-17T02:27:01.942Z,99.90
2022-09-17T02:29:33.965Z,99.90
2022-09-17T02:32:01.385Z,99.90
2022-09-17T02:34:29.419Z,99.90
2022-09-17T02:36:58.702Z,99.90
2022-09-17T02:39:26.518Z,99.90
2022-09-17T02:42:16.144Z,99.90
2022-09-17T02:44:57.867Z,99.90
2022-09-17T02:47:52.265Z,99.90
2022-09-17T02:50:30.901Z,99.90
2022-09-17T02:53:19.320Z,99.90
2022-09-17T02:55:55.728Z,99.90
2022-09-17T02:58:38.153Z,99.90
2022-09-17T03:01:12.577Z,99.90
2022-09-17T03:03:45.947Z,99.90
2022-09-17T03:06:13.789Z,99.90
2022-09-17T03:08:42.854Z,99.90
2022-09-17T03:11:12.870Z,99.90
2022-09-17T03:13:39.884Z,99.90
2022-09-17T03:16:07.040Z,99.90
2022-09-17T03:18:34.242Z,99.90
2022-09-17T03:21:00.979Z,99.90
2022-09-17T03:23:28.150Z,99.90
2022-09-17T03:25:55.333Z,99.90
2022-09-17T03:28:22.668Z,99.90
2022-09-17T03:30:49.373Z,99.90
2022-09-17T03:33:16.489Z,99.90
2022-09-17T03:35:44.334Z,99.90
2022-09-17T03:38:11.893Z,99.90
2022-09-17T03:40:40.408Z,99.90
2022-09-17T03:43:07.466Z,99.90
2022-09-17T03:45:34.481Z,99.90
2022-09-17T03:48:01.420Z,99.90
2022-09-17T03:50:28.127Z,99.90
2022-09-17T03:52:54.854Z,99.90
2022-09-17T03:55:21.591Z,99.90
2022-09-17T03:57:48.391Z,99.90
2022-09-17T04:00:17.439Z,99.90
2022-09-17T04:02:44.520Z,99.90
2022-09-17T04:05:11.511Z,99.90
2022-09-17T04:07:41.166Z,99.90
2022-09-17T04:10:08.592Z,99.90
2022-09-17T04:12:35.364Z,99.90
2022-09-17T04:15:02.505Z,99.90
2022-09-17T04:17:29.171Z,99.90
2022-09-17T04:19:55.883Z,99.90
2022-09-17T04:22:22.693Z,99.90
2022-09-17T04:24:49.351Z,99.90
2022-09-17T04:27:16.442Z,99.90
2022-09-17T04:29:43.210Z,99.90
2022-09-17T04:32:09.898Z,99.90
2022-09-17T04:34:36.977Z,99.90
2022-09-17T04:37:03.962Z,99.90
2022-09-17T04:39:30.658Z,99.90
2022-09-17T04:41:57.494Z,99.90
2022-09-17T04:44:24.158Z,99.90
2022-09-17T04:46:51.013Z,99.90
2022-09-17T04:49:17.731Z,99.90
2022-09-17T04:51:44.591Z,99.90
2022-09-17T04:54:11.257Z,99.90
2022-09-17T04:56:37.898Z,99.90
2022-09-17T04:59:04.564Z,99.90
2022-09-17T05:01:31.230Z,99.90
2022-09-17T05:03:58.000Z,99.90
2022-09-17T05:06:24.722Z,99.90
2022-09-17T05:08:51.425Z,99.90
2022-09-17T05:11:18.286Z,99.90
2022-09-17T05:13:45.003Z,99.90
2022-09-17T05:16:12.004Z,99.90
2022-09-17T05:18:38.748Z,99.90
2022-09-17T05:21:05.677Z,99.90
2022-09-17T05:23:32.383Z,99.90
2022-09-17T05:26:00.563Z,99.90
2022-09-17T05:28:28.269Z,99.90
2022-09-17T05:30:55.162Z,99.90
2022-09-17T05:33:21.907Z,99.90
2022-09-17T05:35:48.740Z,99.90
2022-09-17T05:38:15.596Z,99.90
2022-09-17T05:40:42.312Z,99.90
2022-09-17T05:43:10.072Z,99.90
2022-09-17T05:45:37.976Z,99.90
2022-09-17T05:48:06.844Z,99.90
2022-09-17T05:50:33.748Z,99.90
2022-09-17T05:53:12.140Z,99.90
2022-09-17T05:55:39.472Z,99.90
2022-09-17T05:58:18.612Z,99.90
2022-09-17T06:00:48.024Z,99.90
2022-09-17T06:03:16.669Z,99.90
2022-09-17T06:05:44.370Z,99.90
2022-09-17T06:08:11.258Z,99.90
2022-09-17T06:10:39.145Z,99.90
2022-09-17T06:13:06.014Z,99.90
2022-09-17T06:15:32.673Z,99.90
2022-09-17T06:17:59.537Z,99.90
2022-09-17T06:20:26.227Z,99.90
2022-09-17T06:22:57.619Z,99.90
2022-09-17T06:25:24.943Z,99.90
2022-09-17T06:27:51.758Z,99.90
2022-09-17T06:30:18.586Z,99.90
2022-09-17T06:32:46.365Z,99.90
2022-09-17T06:35:13.093Z,99.90
2022-09-17T06:37:40.818Z,99.90
2022-09-17T06:40:08.908Z,99.90
2022-09-17T06:42:35.680Z,99.90
2022-09-17T06:45:07.684Z,99.90
2022-09-17T06:47:35.441Z,99.90
2022-09-17T06:50:02.418Z,99.90
2022-09-17T06:52:29.273Z,99.90
2022-09-17T06:54:56.447Z,99.90
2022-09-17T06:57:23.232Z,99.90
2022-09-17T06:59:50.260Z,99.90
2022-09-17T07:02:17.209Z,99.90
2022-09-17T07:04:44.131Z,99.90
2022-09-17T07:07:10.928Z,99.90
2022-09-17T07:09:38.043Z,99.90
2022-09-17T07:12:08.192Z,99.90
2022-09-17T07:14:34.982Z,99.90
2022-09-17T07:17:01.918Z,99.90
2022-09-17T07:19:28.779Z,99.90
2022-09-17T07:21:55.436Z,99.90
2022-09-17T07:24:22.071Z,99.90
2022-09-17T07:26:50.099Z,99.90
2022-09-17T07:29:16.941Z,99.90
2022-09-17T07:31:44.044Z,99.90
2022-09-17T07:34:11.352Z,99.90
2022-09-17T07:36:38.121Z,99.90
2022-09-17T07:39:04.899Z,99.90
2022-09-17T07:41:32.176Z,99.90
2022-09-17T07:43:58.926Z,99.90
2022-09-17T07:46:25.995Z,99.90
2022-09-17T07:48:52.787Z,99.90
2022-09-17T07:51:22.116Z,99.90
2022-09-17T07:53:52.909Z,99.90
2022-09-17T07:56:19.919Z,99.90
2022-09-17T07:58:46.586Z,99.90
2022-09-17T08:01:18.404Z,99.90
2022-09-17T08:03:53.064Z,99.90
2022-09-17T08:06:22.793Z,99.90
2022-09-17T08:08:50.236Z,99.90
2022-09-17T08:11:51.669Z,99.90
2022-09-17T08:14:13.917Z,99.90
2022-09-17T08:16:41.327Z,99.90
2022-09-17T08:19:10.699Z,99.90
2022-09-17T08:21:37.499Z,99.90
2022-09-17T08:24:04.712Z,99.90
2022-09-17T08:26:31.534Z,96.70
2022-09-17T08:28:58.659Z,96.70
2022-09-17T08:31:28.229Z,97.80
2022-09-17T08:33:54.977Z,96.60
2022-09-17T08:36:22.919Z,96.50
2022-09-17T08:38:54.034Z,95.20
2022-09-17T08:41:47.194Z,96.90
2022-09-17T08:44:41.115Z,94.90
2022-09-17T08:47:36.442Z,94.10
2022-09-17T08:50:06.906Z,91.80
2022-09-17T08:53:02.690Z,92.60
2022-09-17T08:55:44.458Z,90.30
2022-09-17T08:58:29.171Z,90.60
2022-09-17T09:01:17.212Z,90.40
2022-09-17T09:04:00.275Z,90.60
2022-09-17T09:06:32.591Z,85.70
2022-09-17T09:09:10.070Z,88.30
2022-09-17T09:11:37.114Z,85.20
2022-09-17T09:14:24.466Z,90.40
2022-09-17T09:16:54.215Z,87.20
2022-09-17T09:19:26.907Z,87.70
2022-09-17T09:22:03.629Z,90.20
2022-09-17T09:25:02.425Z,90.80
2022-09-17T09:27:36.842Z,90.10
2022-09-17T09:30:05.616Z,89.60
2022-09-17T09:32:49.916Z,89.90
2022-09-17T09:35:19.463Z,82.00
2022-09-17T09:38:00.912Z,78.30
2022-09-17T09:40:56.726Z,79.20
2022-09-17T09:44:06.868Z,75.70
2022-09-17T09:47:13.264Z,75.40
2022-09-17T09:50:08.365Z,71.40
2022-09-17T09:52:46.694Z,69.70
2022-09-17T09:55:31.331Z,67.60
2022-09-17T09:58:16.954Z,67.40
2022-09-17T10:00:43.748Z,63.60
2022-09-17T10:03:21.324Z,65.90
2022-09-17T10:05:56.150Z,66.00
2022-09-17T10:08:22.825Z,66.70
2022-09-17T10:11:06.930Z,61.10
2022-09-17T10:13:35.758Z,62.20
2022-09-17T10:16:21.017Z,60.20
2022-09-17T10:18:49.587Z,62.40
2022-09-17T10:21:33.786Z,62.70
2022-09-17T10:24:02.447Z,65.40
2022-09-17T10:26:31.493Z,58.90
2022-09-17T10:29:05.628Z,56.20
2022-09-17T10:31:48.517Z,52.20
2022-09-17T10:34:28.893Z,50.20
2022-09-17T10:36:56.710Z,49.10
2022-09-17T10:39:36.338Z,47.70
2022-09-17T10:42:04.663Z,47.30
2022-09-17T10:44:36.774Z,46.20
2022-09-17T10:47:32.597Z,44.60
2022-09-17T10:50:04.668Z,43.70
2022-09-17T10:52:37.454Z,43.60
2022-09-17T10:55:35.009Z,44.60
2022-09-17T10:58:07.824Z,45.30
2022-09-17T11:01:06.594Z,46.40
2022-09-17T11:03:42.401Z,44.80
2022-09-17T11:06:30.966Z,44.70
2022-09-17T11:09:19.354Z,42.10
2022-09-17T11:12:10.881Z,48.20
2022-09-17T11:15:10.674Z,50.70
2022-09-17T11:17:43.654Z,50.10
2022-09-17T11:20:45.342Z,48.50
2022-09-17T11:23:30.544Z,47.00
2022-09-17T11:26:10.227Z,45.10
2022-09-17T11:28:52.029Z,45.80
2022-09-17T11:31:36.967Z,45.30
2022-09-17T11:34:35.366Z,43.40
2022-09-17T11:37:26.551Z,43.90
2022-09-17T11:40:01.266Z,44.40
2022-09-17T11:42:45.523Z,45.80
2022-09-17T11:45:18.942Z,45.20
2022-09-17T11:47:53.375Z,44.70
2022-09-17T11:50:26.046Z,45.00
2022-09-17T11:53:26.050Z,46.00
2022-09-17T11:55:56.800Z,48.70
2022-09-17T11:58:54.180Z,51.20
2022-09-17T12:01:40.354Z,57.20
2022-09-17T12:04:44.927Z,79.10
2022-09-17T12:07:32.855Z,94.00
2022-09-17T12:10:24.870Z,93.40
2022-09-17T12:13:03.535Z,99.90
2022-09-17T12:15:34.146Z,99.90
2022-09-17T12:18:33.388Z,99.80
2022-09-17T12:21:03.103Z,97.60
2022-09-17T12:23:43.166Z,98.30
2022-09-17T12:26:31.350Z,99.70
2022-09-17T12:29:28.430Z,93.00
2022-09-17T12:32:24.261Z,90.80
2022-09-17T12:34:56.742Z,90.00
2022-09-17T12:37:35.294Z,80.50
2022-09-17T12:40:30.223Z,77.40
2022-09-17T12:43:06.041Z,79.20
2022-09-17T12:45:50.764Z,83.20
2022-09-17T12:48:32.604Z,89.70
2022-09-17T12:51:37.045Z,78.90
2022-09-17T12:54:14.300Z,70.40
2022-09-17T12:57:11.117Z,72.30
2022-09-17T12:59:49.001Z,70.80
2022-09-17T13:02:18.793Z,78.50
2022-09-17T13:05:02.063Z,99.90
2022-09-17T13:07:41.290Z,99.90
2022-09-17T13:10:41.758Z,99.90
2022-09-17T13:13:29.654Z,99.90
2022-09-17T13:16:18.415Z,99.90
2022-09-17T13:19:15.207Z,99.90
2022-09-17T13:21:55.699Z,99.90
2022-09-17T13:24:25.245Z,99.90
2022-09-17T13:26:55.761Z,99.90
2022-09-17T13:29:47.163Z,99.90
2022-09-17T13:32:37.007Z,99.90
2022-09-17T13:35:09.711Z,99.90
2022-09-17T13:37:53.869Z,99.90
2022-09-17T13:40:34.967Z,99.90
2022-09-17T13:43:05.753Z,99.90
2022-09-17T13:45:33.851Z,99.90
2022-09-17T13:48:08.052Z,99.90
2022-09-17T13:50:43.782Z,99.90
2022-09-17T13:53:16.471Z,99.90
2022-09-17T13:56:01.971Z,99.90
2022-09-17T13:58:33.921Z,99.90
2022-09-17T14:01:00.761Z,99.90
2022-09-17T14:03:44.559Z,99.90
2022-09-17T14:06:11.425Z,99.90
2022-09-17T14:08:44.222Z,99.90
2022-09-17T14:11:23.459Z,99.90
2022-09-17T14:13:57.881Z,99.90
2022-09-17T14:16:37.953Z,99.90
2022-09-17T14:19:23.070Z,99.90
2022-09-17T14:22:20.963Z,99.90
2022-09-17T14:24:52.401Z,99.90
2022-09-17T14:27:31.250Z,99.90
2022-09-17T14:30:22.977Z,99.90
2022-09-17T14:33:05.797Z,99.90
2022-09-17T14:35:52.167Z,99.90
2022-09-17T14:38:44.654Z,99.90
2022-09-17T14:41:11.647Z,99.90
2022-09-17T14:44:04.588Z,99.90
2022-09-17T14:46:41.279Z,99.90
2022-09-17T14:49:33.746Z,99.90
2022-09-17T14:52:05.350Z,99.90
2022-09-17T14:54:36.256Z,99.90
2022-09-17T14:57:24.044Z,99.90
2022-09-17T14:59:53.657Z,99.90
2022-09-17T15:02:44.931Z,99.90
2022-09-17T15:05:31.973Z,99.90
2022-09-17T15:08:26.292Z,99.90
2022-09-17T15:10:54.830Z,99.90
2022-09-17T15:13:40.433Z,99.90
2022-09-17T15:16:27.580Z,99.90
2022-09-17T15:19:04.374Z,99.90
2022-09-17T15:21:34.536Z,99.90
2022-09-17T15:24:26.363Z,99.90
2022-09-17T15:26:56.740Z,99.90
2022-09-17T15:29:28.690Z,99.90
2022-09-17T15:31:55.633Z,99.90
2022-09-17T15:34:23.701Z,99.90
2022-09-17T15:37:15.441Z,99.90
2022-09-17T15:39:46.883Z,99.90
2022-09-17T15:42:30.865Z,99.90
2022-09-17T15:45:27.812Z,99.90
2022-09-17T15:47:57.517Z,99.90
2022-09-17T15:50:32.987Z,99.90
2022-09-17T15:53:08.818Z,99.90
2022-09-17T15:55:48.291Z,99.90
2022-09-17T15:58:28.952Z,99.90
2022-09-17T16:01:14.744Z,99.90
2022-09-17T16:03:41.839Z,99.90
2022-09-17T16:06:23.199Z,99.90
2022-09-17T16:08:55.949Z,99.90
2022-09-17T16:11:23.883Z,99.90
2022-09-17T16:13:52.143Z,99.90
2022-09-17T16:16:21.288Z,99.90
2022-09-17T16:18:48.687Z,99.90
2022-09-17T16:21:16.920Z,99.90
2022-09-17T16:23:43.748Z,99.90
2022-09-17T16:26:15.660Z,99.90
2022-09-17T16:28:43.279Z,99.90
2022-09-17T16:31:13.637Z,99.90
2022-09-17T16:33:40.717Z,99.90
2022-09-17T16:36:07.679Z,99.90
2022-09-17T16:38:34.364Z,99.90
2022-09-17T16:41:05.492Z,99.90
2022-09-17T16:43:33.722Z,99.90
2022-09-17T16:46:06.201Z,99.90
2022-09-17T16:48:34.052Z,99.90
2022-09-17T16:51:06.386Z,99.90
2022-09-17T16:53:34.488Z,99.90
2022-09-17T16:56:01.373Z,99.90
2022-09-17T16:58:28.058Z,99.90
2022-09-17T17:00:54.958Z,99.90
2022-09-17T17:03:21.844Z,99.90
2022-09-17T17:05:48.788Z,99.90
2022-09-17T17:08:15.666Z,99.90
2022-09-17T17:10:42.549Z,99.90
2022-09-17T17:13:09.238Z,99.90
2022-09-17T17:15:35.868Z,99.90
2022-09-17T17:18:03.049Z,99.90
2022-09-17T17:20:31.925Z,99.90
2022-09-17T17:22:58.691Z,99.90
2022-09-17T17:25:27.046Z,99.90
2022-09-17T17:27:53.837Z,99.90
2022-09-17T17:30:20.625Z,99.90
2022-09-17T17:32:50.750Z,99.90
2022-09-17T17:35:18.055Z,99.90
2022-09-17T17:37:44.947Z,99.90
2022-09-17T17:40:11.723Z,99.90
2022-09-17T17:42:40.684Z,99.90
2022-09-17T17:45:08.168Z,99.90
2022-09-17T17:47:35.015Z,99.90
2022-09-17T17:50:02.083Z,99.90
2022-09-17T17:52:28.789Z,99.90
2022-09-17T17:54:55.467Z,99.90
2022-09-17T17:57:22.203Z,99.90
2022-09-17T17:59:48.982Z,99.90
2022-09-17T18:02:15.959Z,99.90
2022-09-17T18:04:42.781Z,99.90
2022-09-17T18:07:09.598Z,99.90
2022-09-17T18:09:36.268Z,99.90
2022-09-17T18:12:03.220Z,99.90
2022-09-17T18:14:29.975Z,99.90
2022-09-17T18:16:56.809Z,99.90
2022-09-17T18:19:23.751Z,99.90
2022-09-17T18:21:50.558Z,99.90
2022-09-17T18:24:17.306Z,99.90
2022-09-17T18:26:43.949Z,99.90
2022-09-17T18:29:11.909Z,99.90
2022-09-17T18:31:38.965Z,99.90
2022-09-17T18:34:09.748Z,99.90
2022-09-17T18:36:38.942Z,99.90
2022-09-17T18:39:33.191Z,99.90
2022-09-17T18:41:54.457Z,99.90
2022-09-17T18:44:21.988Z,99.90
2022-09-17T18:46:50.133Z,99.90
2022-09-17T18:49:17.294Z,99.90
2022-09-17T18:51:44.100Z,99.90
2022-09-17T18:54:12.851Z,99.90
2022-09-17T18:56:41.659Z,99.90
2022-09-17T18:59:09.039Z,99.90
2022-09-17T19:01:36.027Z,99.90
2022-09-17T19:04:03.679Z,99.90
2022-09-17T19:06:31.927Z,99.90
2022-09-17T19:09:03.701Z,99.90
2022-09-17T19:11:30.480Z,99.90
2022-09-17T19:13:57.900Z,99.90
2022-09-17T19:16:24.739Z,99.90
2022-09-17T19:18:51.709Z,99.90
2022-09-17T19:21:21.579Z,99.90
2022-09-17T19:23:50.662Z,99.90
2022-09-17T19:26:23.502Z,99.90
2022-09-17T19:28:58.693Z,99.90
2022-09-17T19:31:26.353Z,99.90
2022-09-17T19:33:53.469Z,99.90
2022-09-17T19:36:21.069Z,99.90
2022-09-17T19:38:48.389Z,99.90
2022-09-17T19:41:18.905Z,99.90
2022-09-17T19:43:46.596Z,99.90
2022-09-17T19:46:18.526Z,99.90
2022-09-17T19:48:54.211Z,99.90
2022-09-17T19:51:22.964Z,99.90
2022-09-17T19:53:50.103Z,99.90
2022-09-17T19:56:19.658Z,99.90
2022-09-17T19:58:47.167Z,99.90
2022-09-17T20:01:14.439Z,99.90
2022-09-17T20:03:43.313Z,99.90
2022-09-17T20:06:12.730Z,99.90
2022-09-17T20:08:50.162Z,99.90
2022-09-17T20:11:21.151Z,99.90
2022-09-17T20:13:48.435Z,99.90
2022-09-17T20:16:20.700Z,99.90
2022-09-17T20:18:48.991Z,99.90
2022-09-17T20:21:18.854Z,99.90
2022-09-17T20:23:46.183Z,99.90
2022-09-17T20:26:13.861Z,99.90
2022-09-17T20:28:41.122Z,99.90
2022-09-17T20:31:20.205Z,99.90
2022-09-17T20:33:47.335Z,99.90
2022-09-17T20:36:17.190Z,99.90
2022-09-17T20:41:31.806Z,99.90
2022-09-17T20:43:59.103Z,99.90
2022-09-17T20:46:29.341Z,99.90
2022-09-17T20:48:57.680Z,99.90
2022-09-17T20:51:27.276Z,99.90
2022-09-17T20:53:54.200Z,99.90
2022-09-17T20:56:28.867Z,99.90
2022-09-17T20:59:14.381Z,99.90
2022-09-17T21:01:44.843Z,99.90
2022-09-17T21:04:14.857Z,99.90
2022-09-17T21:06:44.303Z,99.90
2022-09-17T21:09:15.709Z,99.90
2022-09-17T21:11:43.731Z,99.90
2022-09-17T21:14:15.281Z,99.90
2022-09-17T21:16:42.465Z,99.90
2022-09-17T21:19:11.621Z,99.90
2022-09-17T21:21:38.473Z,99.90
2022-09-17T21:24:06.819Z,99.90
2022-09-17T21:26:34.592Z,99.90
2022-09-17T21:29:02.099Z,99.90
2022-09-17T21:31:32.669Z,99.90
2022-09-17T21:34:02.583Z,99.90
2022-09-17T21:36:31.989Z,99.90
2022-09-17T21:39:01.864Z,99.90
2022-09-17T21:41:29.766Z,99.90
2022-09-17T21:43:56.633Z,99.90
2022-09-17T21:46:28.994Z,99.90
2022-09-17T21:48:57.706Z,99.90
2022-09-17T21:51:30.333Z,99.90
2022-09-17T21:53:59.928Z,99.90
2022-09-17T21:56:27.315Z,99.90
2022-09-17T21:58:56.377Z,99.90
2022-09-17T22:01:29.092Z,99.90
2022-09-17T22:03:57.611Z,99.90
2022-09-17T22:06:28.069Z,99.90
2022-09-17T22:08:55.639Z,99.90
2022-09-17T22:11:25.656Z,99.90
2022-09-17T22:14:05.332Z,99.90
2022-09-17T22:16:33.429Z,99.90
2022-09-17T22:19:00.273Z,99.90
2022-09-17T22:21:28.950Z,99.90
2022-09-17T22:23:58.751Z,99.90
2022-09-17T22:26:29.077Z,99.90
2022-09-17T22:28:56.218Z,99.90
2022-09-17T22:31:23.230Z,99.90
2022-09-17T22:33:50.817Z,99.90
2022-09-17T22:36:19.474Z,99.90
2022-09-17T22:38:48.425Z,99.90
2022-09-17T22:41:17.926Z,99.90
2022-09-17T22:43:45.046Z,99.90
2022-09-17T22:46:13.950Z,99.90
2022-09-17T22:48:41.493Z,99.90
2022-09-17T22:51:09.112Z,99.90
2022-09-17T22:53:37.130Z,99.90
2022-09-17T22:56:06.438Z,99.90
2022-09-17T22:58:33.338Z,99.90
2022-09-17T23:01:05.444Z,99.90
2022-09-17T23:03:32.298Z,99.90
2022-09-17T23:06:00.323Z,99.90
2022-09-17T23:08:27.703Z,99.90
2022-09-17T23:10:54.903Z,99.90
2022-09-17T23:13:21.871Z,99.90
2022-09-17T23:15:48.706Z,99.90
2022-09-17T23:18:15.582Z,99.90
2022-09-17T23:20:42.363Z,99.90
2022-09-17T23:23:09.728Z,99.90
2022-09-17T23:25:36.422Z,99.90
2022-09-17T23:28:03.329Z,99.90
2022-09-17T23:30:30.023Z,99.90
2022-09-17T23:32:58.737Z,99.90
2022-09-17T23:35:25.596Z,99.90
2022-09-17T23:37:52.373Z,99.90
2022-09-17T23:40:20.772Z,99.90
2022-09-17T23:42:47.647Z,99.90
2022-09-17T23:45:14.375Z,99.90
2022-09-17T23:47:41.197Z,99.90
2022-09-17T23:50:08.209Z,99.90
2022-09-17T23:52:34.883Z,99.90
2022-09-17T23:55:01.594Z,99.90
2022-09-17T23:57:29.030Z,99.90
2022-09-17T23:59:55.816Z,99.90
